Time;durP1;ratioP1;P1;durP2;ratioP2;P2;SDS_P1;SDS_P2;PMS_P1;PMS_P2;Temp;Humidity;BMP_temperature;BMP_pressure;BME280_temperature;BME280_humidity;BME280_pressure;Samples;Min_cycle;Max_cycle;Signal;HPM_P1;HPM_P2
2021/12/08 00:01:12;;;;;;;5.63;2.90;;;;;;;4.40;90.96;99106.19;5037325;28;20459;-68
2021/12/08 00:03:38;;;;;;;5.35;2.30;;;;;;;4.42;90.71;99114.47;5037295;28;20024;-66
2021/12/08 00:06:04;;;;;;;5.20;2.53;;;;;;;4.43;90.65;99129.66;5037232;28;20032;-66
2021/12/08 00:08:32;;;;;;;5.03;2.78;;;;;;;4.40;91.70;99119.81;5054453;28;20067;-66
2021/12/08 00:13:31;;;;;;;7.40;2.97;;;;;;;4.31;92.08;99128.56;5055757;28;20036;-66
2021/12/08 00:16:00;;;;;;;6.90;3.03;;;;;;;4.29;92.04;99126.22;5054978;28;20032;-66
2021/12/08 00:18:28;;;;;;;8.10;3.47;;;;;;;4.32;92.92;99106.38;5054835;28;20017;-66
2021/12/08 00:20:56;;;;;;;5.82;3.20;;;;;;;4.33;92.39;99120.72;5054608;28;20049;-69
2021/12/08 00:23:22;;;;;;;5.78;3.35;;;;;;;4.32;93.05;99096.91;5036541;28;20021;-67
2021/12/08 00:25:49;;;;;;;7.75;3.40;;;;;;;4.37;92.49;99081.00;5054387;28;20025;-68
2021/12/08 00:28:14;;;;;;;4.63;2.92;;;;;;;4.40;92.55;99086.56;5054238;28;20365;-67
2021/12/08 00:30:44;;;;;;;7.28;3.30;;;;;;;4.41;92.71;99100.13;5054300;28;20099;-66
2021/12/08 00:33:10;;;;;;;8.27;4.07;;;;;;;4.31;93.01;99097.88;5054530;28;20021;-67
2021/12/08 00:35:37;;;;;;;6.68;3.60;;;;;;;4.32;93.50;99091.03;5054588;28;20031;-66
2021/12/08 00:38:04;;;;;;;6.70;3.70;;;;;;;4.37;93.97;99093.78;5036658;28;20059;-67
2021/12/08 00:40:30;;;;;;;7.50;3.80;;;;;;;4.47;93.33;99097.59;5054478;28;20111;-67
2021/12/08 00:42:57;;;;;;;7.05;3.40;;;;;;;4.56;93.18;99085.44;5054390;28;20029;-66
2021/12/08 00:45:24;;;;;;;8.50;3.83;;;;;;;4.51;92.86;99088.56;5036585;28;20025;-66
2021/12/08 00:47:51;;;;;;;5.95;3.17;;;;;;;4.67;93.13;99087.47;5054586;28;20361;-67
2021/12/08 00:50:20;;;;;;;7.15;3.38;;;;;;;4.71;93.13;99082.75;5036568;28;20052;-67
2021/12/08 00:52:46;;;;;;;7.30;3.65;;;;;;;4.69;92.77;99077.03;5054168;28;20035;-67
2021/12/08 00:55:15;;;;;;;7.25;3.83;;;;;;;4.80;92.99;99088.50;5054099;28;20025;-67
2021/12/08 00:57:40;;;;;;;6.38;3.78;;;;;;;4.79;93.02;99092.06;5036271;28;20075;-66
2021/12/08 01:00:14;;;;;;;6.80;3.33;;;;;;;4.73;93.01;99089.25;5054155;28;20111;-66
2021/12/08 01:02:40;;;;;;;8.70;3.95;;;;;;;4.77;93.07;99097.34;5054788;28;20119;-66
2021/12/08 01:05:07;;;;;;;9.38;3.63;;;;;;;4.81;92.43;99102.91;5054247;28;20064;-70
2021/12/08 01:07:33;;;;;;;6.78;3.63;;;;;;;4.82;93.66;99127.50;5036073;28;20028;-67
2021/12/08 01:09:58;;;;;;;7.50;4.00;;;;;;;4.80;93.43;99119.22;5054468;28;20033;-66
2021/12/08 01:12:24;;;;;;;10.82;3.97;;;;;;;4.77;93.01;99130.63;5053964;28;20025;-66
2021/12/08 01:14:49;;;;;;;10.45;3.95;;;;;;;4.86;93.30;99134.63;5053805;28;20029;-66
2021/12/08 01:17:14;;;;;;;6.00;3.70;;;;;;;4.83;94.03;99146.97;5035829;28;20027;-68
2021/12/08 01:19:40;;;;;;;7.75;3.88;;;;;;;4.88;93.66;99114.72;5053565;28;20052;-67
2021/12/08 01:22:05;;;;;;;8.85;4.15;;;;;;;4.86;93.54;99101.34;5053692;28;20081;-66
2021/12/08 01:24:31;;;;;;;7.22;4.38;;;;;;;4.92;93.85;99110.81;5053771;28;20049;-67
2021/12/08 01:26:57;;;;;;;8.90;4.28;;;;;;;4.88;93.13;99113.94;5053929;28;20025;-67
2021/12/08 01:29:22;;;;;;;8.80;4.32;;;;;;;4.98;93.02;99119.50;5053640;28;20029;-67
2021/12/08 01:31:48;;;;;;;11.57;4.35;;;;;;;4.94;93.55;99123.41;5053855;28;20036;-67
2021/12/08 01:34:13;;;;;;;9.82;4.70;;;;;;;5.00;93.42;99121.88;5053532;28;20053;-66
2021/12/08 01:36:40;;;;;;;8.50;4.80;;;;;;;5.11;93.53;99134.91;5035753;28;20110;-66
2021/12/08 01:39:07;;;;;;;9.45;4.60;;;;;;;5.16;93.23;99134.34;5053447;28;20079;-66
2021/12/08 01:41:33;;;;;;;10.40;5.07;;;;;;;5.17;93.49;99144.38;5053492;28;20048;-66
2021/12/08 01:46:42;;;;;;;7.88;4.78;;;;;;;5.26;93.55;99144.22;5053737;28;20454;-67
2021/12/08 01:49:08;;;;;;;10.27;5.03;;;;;;;5.17;93.87;99146.94;5035478;28;20020;-69
2021/12/08 01:51:34;;;;;;;8.10;4.85;;;;;;;5.24;93.82;99136.75;5053904;28;20064;-66
2021/12/08 01:54:01;;;;;;;8.73;5.45;;;;;;;5.23;94.31;99145.38;5053200;28;20079;-67
2021/12/08 01:56:29;;;;;;;9.80;4.78;;;;;;;5.34;94.03;99151.72;5053593;28;20025;-68
2021/12/08 01:58:55;;;;;;;11.05;5.22;;;;;;;5.42;93.74;99131.06;5053377;28;20033;-67
2021/12/08 02:01:24;;;;;;;7.53;5.28;;;;;;;5.46;93.72;99146.84;5053740;28;20478;-67
2021/12/08 02:03:49;;;;;;;11.25;5.18;;;;;;;5.46;93.84;99152.75;5053272;28;20032;-67
2021/12/08 02:06:17;;;;;;;9.13;5.30;;;;;;;5.46;94.26;99162.22;5053271;28;20029;-67
2021/12/08 02:08:42;;;;;;;8.63;5.00;;;;;;;5.52;93.75;99164.78;5053319;28;20028;-67
2021/12/08 02:11:08;;;;;;;7.53;4.40;;;;;;;5.54;94.26;99164.59;5035256;28;20032;-67
2021/12/08 02:13:38;;;;;;;10.45;4.93;;;;;;;5.61;93.86;99167.97;5035473;28;20070;-68
2021/12/08 02:16:08;;;;;;;7.65;4.60;;;;;;;5.57;93.15;99162.44;5053153;28;20021;-65
2021/12/08 02:18:34;;;;;;;10.60;5.00;;;;;;;5.57;93.59;99177.03;5035055;28;20120;-65
2021/12/08 02:21:02;;;;;;;9.20;4.80;;;;;;;5.59;93.62;99165.59;5035106;28;20029;-67
2021/12/08 02:23:27;;;;;;;5.93;4.40;;;;;;;5.57;93.35;99157.31;5035167;28;20028;-68
2021/12/08 02:25:53;;;;;;;7.68;4.70;;;;;;;5.59;93.68;99155.34;5053040;28;20025;-68
2021/12/08 02:28:18;;;;;;;7.35;4.65;;;;;;;5.55;93.73;99161.06;5053027;28;20021;-66
2021/12/08 02:30:50;;;;;;;10.57;4.72;;;;;;;5.65;93.89;99164.03;5053294;28;20494;-67
2021/12/08 02:47:12;;;;;;;8.50;4.05;;;;;;;5.75;92.73;99179.03;5057509;28;20035;-68
2021/12/08 02:49:38;;;;;;;8.02;4.40;;;;;;;5.75;93.10;99179.81;5039005;28;20020;-67
2021/12/08 02:52:07;;;;;;;9.23;4.28;;;;;;;5.80;92.88;99186.94;5038722;28;20025;-67
2021/12/08 02:54:36;;;;;;;11.25;4.53;;;;;;;5.78;92.96;99186.34;5056438;28;20029;-67
2021/12/08 02:57:01;;;;;;;9.25;4.40;;;;;;;5.85;92.68;99193.06;5056545;28;20428;-67
2021/12/08 02:59:26;;;;;;;10.88;4.32;;;;;;;5.74;93.89;99195.41;5038505;28;20172;-66
2021/12/08 03:01:52;;;;;;;10.55;4.20;;;;;;;5.74;93.94;99174.91;5056454;28;20025;-67
2021/12/08 03:04:17;;;;;;;11.98;3.90;;;;;;;5.94;92.93;99174.97;5056354;28;20103;-67
2021/12/08 03:06:42;;;;;;;9.55;4.03;;;;;;;5.90;93.46;99182.25;5038322;28;20089;-67
2021/12/08 03:09:08;;;;;;;9.75;3.78;;;;;;;5.82;93.19;99184.97;5056368;28;20029;-67
2021/12/08 03:11:34;;;;;;;8.70;4.00;;;;;;;5.84;93.12;99178.69;5056609;28;20029;-67
2021/12/08 03:14:10;;;;;;;6.57;3.90;;;;;;;5.87;92.66;99173.16;5056350;28;20122;-67
2021/12/08 03:16:39;;;;;;;10.93;4.38;;;;;;;5.94;91.61;99187.78;5056742;28;20035;-67
2021/12/08 03:19:04;;;;;;;10.88;4.43;;;;;;;5.93;91.99;99191.28;5055931;28;20469;-66
2021/12/08 03:21:32;;;;;;;10.13;4.65;;;;;;;5.93;92.15;99181.88;5056028;28;20064;-67
2021/12/08 03:24:13;;;;;;;10.10;4.28;;;;;;;5.93;92.21;99187.00;5038057;28;20029;-67
2021/12/08 03:26:49;;;;;;;10.98;4.38;;;;;;;5.91;91.99;99193.28;5038185;28;20047;-67
2021/12/08 03:29:23;;;;;;;11.30;4.45;;;;;;;5.92;91.23;99198.19;5056505;28;20028;-68
2021/12/08 03:31:52;;;;;;;7.22;4.30;;;;;;;5.99;90.95;99200.81;5039380;28;20116;-68
2021/12/08 03:34:20;;;;;;;12.07;4.00;;;;;;;6.03;90.95;99191.75;5039535;28;20021;-68
2021/12/08 03:36:46;;;;;;;8.43;3.88;;;;;;;5.97;90.79;99207.91;5057502;28;20028;-69
2021/12/08 03:39:11;;;;;;;12.98;4.10;;;;;;;6.04;90.59;99211.25;5056766;28;20472;-69
2021/12/08 03:41:36;;;;;;;11.80;4.00;;;;;;;6.00;91.16;99213.44;5038762;28;20115;-68
2021/12/08 03:44:03;;;;;;;12.52;4.20;;;;;;;6.01;90.70;99201.38;5055990;28;20384;-68
2021/12/08 03:46:32;;;;;;;11.18;4.35;;;;;;;6.06;90.57;99199.81;5056992;28;20021;-68
2021/12/08 03:49:00;;;;;;;8.75;3.85;;;;;;;6.02;90.16;99195.31;5038088;28;20029;-67
2021/12/08 03:51:25;;;;;;;9.02;3.78;;;;;;;6.09;90.44;99203.78;5037975;28;20020;-67
2021/12/08 03:53:50;;;;;;;10.48;3.80;;;;;;;6.06;89.59;99207.50;5037965;28;20387;-66
2021/12/08 03:56:16;;;;;;;7.93;3.78;;;;;;;6.02;90.03;99208.91;5056067;28;20025;-67
2021/12/08 03:58:42;;;;;;;17.08;4.00;;;;;;;6.00;90.08;99204.94;5055676;28;20017;-67
2021/12/08 04:01:07;;;;;;;11.05;4.13;;;;;;;5.96;90.24;99216.59;5056061;28;20111;-67
2021/12/08 04:03:34;;;;;;;12.07;3.85;;;;;;;5.89;90.06;99219.88;5055489;28;20025;-66
2021/12/08 04:06:06;;;;;;;7.25;3.83;;;;;;;5.94;89.98;99236.50;5055205;28;20044;-66
2021/12/08 04:08:44;;;;;;;9.75;3.80;;;;;;;5.85;89.99;99225.59;5037476;28;20476;-66
2021/12/08 04:11:12;;;;;;;12.73;3.95;;;;;;;6.02;89.31;99239.69;5055262;28;20021;-66
2021/12/08 04:13:39;;;;;;;12.40;3.60;;;;;;;5.93;89.82;99242.56;5055110;28;20071;-66
2021/12/08 04:16:08;;;;;;;8.45;3.08;;;;;;;5.99;89.84;99241.84;5055126;28;20064;-67
2021/12/08 04:18:34;;;;;;;9.43;3.15;;;;;;;5.94;88.98;99247.53;5055622;28;20452;-67
2021/12/08 04:21:01;;;;;;;7.72;3.33;;;;;;;6.07;89.30;99249.34;5037205;28;20033;-67
2021/12/08 04:23:32;;;;;;;9.43;3.10;;;;;;;5.96;88.96;99255.84;5036975;28;20048;-67
2021/12/08 04:25:59;;;;;;;15.88;3.20;;;;;;;5.93;90.21;99257.94;5054957;28;20021;-67
2021/12/08 04:28:29;;;;;;;5.28;2.80;;;;;;;5.93;89.60;99260.50;5055162;28;20025;-67
2021/12/08 04:31:03;;;;;;;8.68;3.15;;;;;;;5.99;89.25;99265.72;5054741;28;20081;-67
2021/12/08 04:33:30;;;;;;;7.55;2.90;;;;;;;6.02;88.26;99261.97;5036779;28;20028;-66
2021/12/08 04:35:56;;;;;;;7.45;2.72;;;;;;;6.03;88.96;99258.41;5036874;28;20024;-67
2021/12/08 04:38:33;;;;;;;11.07;2.80;;;;;;;5.98;88.39;99253.06;5054614;28;20036;-67
2021/12/08 04:41:04;;;;;;;7.68;2.90;;;;;;;5.99;88.45;99258.03;5036713;28;20139;-65
2021/12/08 04:43:43;;;;;;;9.23;3.00;;;;;;;5.97;87.94;99259.97;5054571;28;20384;-66
2021/12/08 04:51:46;;;;;;;8.48;2.80;;;;;;;5.93;87.32;99268.22;5055166;28;20108;-66
2021/12/08 05:05:49;;;;;;;12.00;2.90;;;;;;;5.82;86.60;99259.31;5054930;28;20043;-66
2021/12/08 05:08:19;;;;;;;8.68;3.08;;;;;;;5.79;87.26;99264.84;5053359;28;20036;-67
2021/12/08 05:10:47;;;;;;;8.75;2.60;;;;;;;5.73;86.54;99275.88;5036155;28;20112;-66
2021/12/08 05:13:14;;;;;;;6.95;2.60;;;;;;;5.73;85.91;99265.59;5053860;28;20021;-65
2021/12/08 05:15:53;;;;;;;11.52;3.13;;;;;;;5.62;86.37;99275.41;5054430;28;20475;-66
2021/12/08 05:18:22;;;;;;;10.43;3.30;;;;;;;5.66;86.56;99283.50;5054425;28;20104;-69
2021/12/08 05:20:52;;;;;;;6.80;2.78;;;;;;;5.66;87.09;99286.06;5053580;28;20050;-67
2021/12/08 05:23:32;;;;;;;10.57;2.70;;;;;;;5.53;87.16;99288.59;5036002;28;20111;-66
2021/12/08 05:26:02;;;;;;;9.25;3.22;;;;;;;5.57;86.19;99282.09;5054401;28;20154;-66
2021/12/08 05:28:29;;;;;;;7.45;2.25;;;;;;;5.61;86.80;99288.41;5053687;28;20104;-66
2021/12/08 05:31:10;;;;;;;8.48;2.55;;;;;;;5.52;86.93;99284.44;5053611;28;20025;-66
2021/12/08 05:33:37;;;;;;;10.18;2.78;;;;;;;5.43;86.68;99283.78;5035741;28;20049;-65
2021/12/08 05:36:04;;;;;;;27.63;2.88;;;;;;;5.39;86.71;99273.16;5053512;28;20484;-66
2021/12/08 05:38:29;;;;;;;7.57;2.80;;;;;;;5.40;86.40;99279.84;5054094;28;20081;-67
2021/12/08 05:41:00;;;;;;;14.73;2.88;;;;;;;5.36;86.10;99283.78;5035631;28;20104;-67
2021/12/08 05:43:26;;;;;;;5.35;2.38;;;;;;;5.34;86.56;99308.78;5036486;28;20028;-68
2021/12/08 05:45:53;;;;;;;13.43;2.53;;;;;;;5.33;86.44;99298.75;5036013;28;20020;-68
2021/12/08 05:48:19;;;;;;;11.15;2.58;;;;;;;5.28;86.22;99301.84;5035556;28;20040;-67
2021/12/08 05:50:57;;;;;;;9.88;2.67;;;;;;;5.25;85.96;99307.34;5053323;28;20048;-68
2021/12/08 05:53:23;;;;;;;8.18;2.90;;;;;;;5.23;86.02;99301.63;5053313;28;20504;-68
2021/12/08 05:55:49;;;;;;;7.95;2.70;;;;;;;5.19;85.75;99320.91;5035444;28;20502;-68
2021/12/08 05:58:17;;;;;;;8.80;2.60;;;;;;;5.17;85.70;99300.59;5053445;28;20418;-69
2021/12/08 06:00:53;;;;;;;6.05;2.50;;;;;;;5.16;85.54;99316.16;5035884;28;20025;-68
2021/12/08 06:03:20;;;;;;;6.55;2.28;;;;;;;5.15;85.52;99320.50;5053295;28;20033;-68
2021/12/08 06:05:48;;;;;;;6.90;2.28;;;;;;;5.04;86.10;99313.34;5035457;28;20033;-68
2021/12/08 06:08:14;;;;;;;11.07;2.60;;;;;;;5.01;85.69;99316.25;5056215;28;20104;-69
2021/12/08 06:10:40;;;;;;;8.80;2.60;;;;;;;4.96;85.36;99310.91;5041164;28;20055;-67
2021/12/08 06:13:08;;;;;;;9.68;2.63;;;;;;;4.93;86.23;99317.19;5040013;28;20021;-69
2021/12/08 06:15:35;;;;;;;10.05;2.47;;;;;;;5.01;85.02;99311.16;5040538;28;20029;-69
2021/12/08 06:18:00;;;;;;;9.45;2.17;;;;;;;5.03;84.65;99326.31;5058254;28;20025;-68
2021/12/08 06:20:26;;;;;;;15.60;2.80;;;;;;;5.02;85.71;99338.31;5039408;28;20128;-68
2021/12/08 06:22:53;;;;;;;16.67;2.35;;;;;;;4.93;85.46;99332.53;5057143;28;20032;-66
2021/12/08 06:25:20;;;;;;;8.65;2.58;;;;;;;4.86;85.03;99344.50;5057042;28;20025;-67
2021/12/08 06:27:46;;;;;;;8.45;2.10;;;;;;;4.85;85.34;99363.38;5057196;28;20025;-67
2021/12/08 06:30:17;;;;;;;9.27;1.83;;;;;;;4.83;84.89;99359.44;5056989;28;20040;-67
2021/12/08 06:32:42;;;;;;;14.43;1.92;;;;;;;4.89;84.77;99356.94;5056946;28;20107;-66
2021/12/08 06:35:14;;;;;;;8.38;1.85;;;;;;;4.87;84.63;99371.69;5057007;28;20179;-67
2021/12/08 06:37:42;;;;;;;7.45;1.58;;;;;;;4.86;84.74;99353.94;5039224;28;20025;-67
2021/12/08 06:40:17;;;;;;;7.50;2.00;;;;;;;4.89;84.80;99356.13;5056981;28;20025;-67
2021/12/08 06:42:45;;;;;;;13.73;2.38;;;;;;;4.84;84.51;99359.25;5057340;28;20104;-67
2021/12/08 06:45:16;;;;;;;8.00;1.80;;;;;;;4.83;84.60;99347.41;5056666;28;20106;-68
2021/12/08 06:47:43;;;;;;;11.13;1.80;;;;;;;4.83;84.38;99349.97;5056602;28;20029;-68
2021/12/08 06:50:17;;;;;;;8.23;1.92;;;;;;;4.77;84.42;99350.72;5038764;28;20411;-68
2021/12/08 06:52:42;;;;;;;6.32;1.70;;;;;;;4.72;84.48;99358.19;5038671;28;20468;-68
2021/12/08 06:55:13;;;;;;;8.82;1.60;;;;;;;4.67;84.78;99356.16;5038645;28;20021;-68
2021/12/08 06:57:46;;;;;;;7.40;1.80;;;;;;;4.68;85.51;99364.63;5057186;28;20032;-67
2021/12/08 07:06:05;;;;;;;9.40;1.85;;;;;;;4.54;86.14;99389.28;5057129;28;20115;-67
2021/12/08 07:08:31;;;;;;;11.32;2.42;;;;;;;4.52;85.45;99374.13;5038361;28;20025;-67
2021/12/08 07:10:57;;;;;;;9.43;1.70;;;;;;;4.53;85.76;99385.13;5038202;28;20498;-67
2021/12/08 07:13:26;;;;;;;10.10;1.90;;;;;;;4.36;85.83;99387.13;5056081;28;20029;-67
2021/12/08 07:16:05;;;;;;;8.48;1.90;;;;;;;4.46;85.41;99394.50;5056089;28;20150;-67
2021/12/08 07:18:39;;;;;;;7.13;1.65;;;;;;;4.38;85.74;99394.63;5038098;28;20025;-68
2021/12/08 07:21:09;;;;;;;9.43;2.17;;;;;;;4.41;85.50;99395.06;5038437;28;20037;-70
2021/12/08 07:23:45;;;;;;;10.13;2.25;;;;;;;4.41;85.59;99396.81;5055884;28;20527;-68
2021/12/08 07:26:18;;;;;;;12.15;2.05;;;;;;;4.39;85.43;99402.09;5055983;28;20102;-67
2021/12/08 07:28:43;;;;;;;;;;;;;;;4.35;86.04;99397.56;5038712;28;20464;-67
2021/12/08 07:31:15;;;;;;;12.13;2.03;;;;;;;4.34;85.49;99411.28;5037910;28;19909;-67
2021/12/08 07:33:43;;;;;;;8.55;1.85;;;;;;;4.32;86.29;99413.25;5055672;28;20033;-67
2021/12/08 07:36:14;;;;;;;8.13;2.08;;;;;;;4.29;85.56;99397.28;5055678;28;20032;-67
2021/12/08 07:38:39;;;;;;;9.57;1.90;;;;;;;4.38;85.12;99407.41;5037945;28;20048;-68
2021/12/08 07:41:10;;;;;;;10.93;1.83;;;;;;;4.36;85.17;99407.59;5037734;28;20033;-66
2021/12/08 07:43:40;;;;;;;9.02;2.75;;;;;;;4.39;85.50;99411.56;5055646;28;20021;-67
2021/12/08 07:46:12;;;;;;;8.18;2.47;;;;;;;4.42;84.74;99409.44;5055468;28;20027;-68
2021/12/08 07:48:47;;;;;;;9.23;1.90;;;;;;;4.33;85.40;99428.41;5037574;28;20025;-67
2021/12/08 07:51:19;;;;;;;13.07;2.28;;;;;;;4.38;85.18;99420.22;5055448;28;20106;-67
2021/12/08 07:53:44;;;;;;;9.18;2.38;;;;;;;4.37;85.35;99421.16;5056406;28;20029;-68
2021/12/08 07:56:12;;;;;;;9.60;2.00;;;;;;;4.36;84.91;99414.47;5055323;28;20472;-68
2021/12/08 07:58:40;;;;;;;13.93;2.20;;;;;;;4.30;84.98;99421.09;5037463;28;20078;-67
2021/12/08 08:01:10;;;;;;;10.45;2.00;;;;;;;4.31;85.84;99417.56;5055300;28;20036;-68
2021/12/08 08:03:37;;;;;;;6.93;2.20;;;;;;;4.31;85.41;99412.44;5055783;28;20021;-68
2021/12/08 08:06:08;;;;;;;12.93;2.38;;;;;;;4.32;84.61;99411.50;5037392;28;20125;-68
2021/12/08 08:08:34;;;;;;;9.43;2.35;;;;;;;4.35;84.67;99408.56;5055453;28;20371;-67
2021/12/08 08:11:08;;;;;;;13.40;2.42;;;;;;;4.44;84.41;99416.94;5055736;28;20021;-67
2021/12/08 08:13:34;;;;;;;9.10;2.33;;;;;;;4.34;84.51;99416.41;5055539;28;20064;-68
2021/12/08 08:16:08;;;;;;;8.75;2.25;;;;;;;4.35;84.43;99418.81;5055135;28;20020;-68
2021/12/08 08:18:38;;;;;;;7.88;2.20;;;;;;;4.34;84.96;99417.19;5055498;28;20050;-68
2021/12/08 08:21:09;;;;;;;8.52;2.15;;;;;;;4.36;84.87;99422.16;5055350;28;20025;-67
2021/12/08 08:23:35;;;;;;;12.30;2.35;;;;;;;4.38;85.10;99418.44;5036992;28;20037;-69
2021/12/08 08:26:03;;;;;;;7.60;2.20;;;;;;;4.43;84.09;99417.88;5054820;28;20492;-68
2021/12/08 08:28:29;;;;;;;10.73;2.28;;;;;;;4.42;84.55;99406.88;5036959;28;20494;-68
2021/12/08 08:31:01;;;;;;;5.65;1.90;;;;;;;4.44;84.54;99416.94;5054160;28;20029;-68
2021/12/08 08:33:29;;;;;;;12.73;2.70;;;;;;;4.59;83.60;99399.75;5036804;28;20028;-67
2021/12/08 08:35:58;;;;;;;6.43;2.30;;;;;;;4.61;83.94;99407.28;5036750;28;20103;-67
2021/12/08 08:38:32;;;;;;;11.32;2.13;;;;;;;4.51;84.10;99405.00;5054629;28;20021;-67
2021/12/08 08:41:21;;;;;;;11.80;2.25;;;;;;;4.61;83.62;99420.06;5054803;28;20039;-67
2021/12/08 08:43:48;;;;;;;14.85;2.50;;;;;;;4.60;83.72;99418.47;5053763;28;20037;-69
2021/12/08 08:46:18;;;;;;;9.55;2.25;;;;;;;4.52;83.42;99415.06;5036521;28;20079;-68
2021/12/08 08:48:53;;;;;;;9.32;2.67;;;;;;;4.64;83.32;99417.16;5036584;28;20027;-67
2021/12/08 08:51:33;;;;;;;14.45;2.40;;;;;;;4.62;82.69;99430.09;5054462;28;20025;-68
2021/12/08 08:54:05;;;;;;;9.73;2.25;;;;;;;4.68;83.11;99436.25;5054310;28;20027;-67
2021/12/08 08:56:38;;;;;;;11.38;2.50;;;;;;;4.67;82.45;99429.56;5054668;28;20029;-68
2021/12/08 08:59:12;;;;;;;9.55;2.10;;;;;;;4.73;82.15;99428.84;5036288;28;20025;-68
2021/12/08 09:01:42;;;;;;;6.53;2.08;;;;;;;4.73;82.26;99446.75;5036356;28;20017;-65
2021/12/08 09:04:13;;;;;;;12.48;2.08;;;;;;;4.73;82.78;99439.88;5036212;28;20032;-66
2021/12/08 09:06:43;;;;;;;7.13;2.00;;;;;;;4.86;82.23;99446.09;5054171;28;20070;-65
2021/12/08 09:09:13;;;;;;;4.93;1.65;;;;;;;4.79;81.90;99461.38;5036012;28;20075;-67
2021/12/08 09:12:03;;;;;;;8.40;1.80;;;;;;;5.00;82.05;99460.59;5054484;28;20017;-68
2021/12/08 09:14:46;;;;;;;8.45;1.98;;;;;;;5.05;81.46;99455.72;5035934;28;20021;-67
2021/12/08 09:17:20;;;;;;;10.73;1.80;;;;;;;5.02;80.67;99453.53;5035906;28;20115;-68
2021/12/08 09:19:59;;;;;;;8.07;1.77;;;;;;;5.08;81.22;99454.56;5053574;28;20487;-67
2021/12/08 09:22:31;;;;;;;8.10;1.77;;;;;;;5.18;80.71;99465.31;5054259;28;20036;-67
2021/12/08 09:25:16;;;;;;;8.07;2.00;;;;;;;5.45;79.62;99476.56;5054382;28;20025;-68
2021/12/08 09:27:54;;;;;;;10.57;1.60;;;;;;;5.62;79.02;99477.88;5035886;28;20029;-69
2021/12/08 09:30:38;;;;;;;8.25;1.77;;;;;;;5.68;78.67;99473.78;5053747;28;20494;-68
2021/12/08 09:33:12;;;;;;;7.60;1.70;;;;;;;5.65;78.42;99469.81;5035672;28;20020;-69
2021/12/08 09:35:50;;;;;;;9.93;2.25;;;;;;;5.47;79.27;99472.06;5054162;28;20029;-69
2021/12/08 09:38:21;;;;;;;11.38;1.98;;;;;;;5.38;78.91;99496.19;5035855;28;20113;-68
2021/12/08 09:41:10;;;;;;;11.43;2.00;;;;;;;5.54;79.52;99479.78;5054017;28;20112;-67
2021/12/08 09:43:50;;;;;;;10.27;2.03;;;;;;;5.77;77.66;99466.75;5035590;28;20031;-68
2021/12/08 09:46:24;;;;;;;8.63;1.90;;;;;;;5.53;79.06;99475.66;5053508;28;20388;-67
2021/12/08 09:48:51;;;;;;;6.95;1.80;;;;;;;5.78;78.31;99483.69;5053489;28;20025;-67
2021/12/08 09:51:22;;;;;;;4.82;1.67;;;;;;;5.83;77.77;99487.28;5053513;28;20111;-67
2021/12/08 09:53:48;;;;;;;6.22;1.67;;;;;;;6.15;76.68;99482.56;5035437;28;20036;-68
2021/12/08 09:56:16;;;;;;;9.10;1.75;;;;;;;6.25;76.52;99483.03;5035599;28;20383;-68
2021/12/08 09:58:42;;;;;;;7.25;2.08;;;;;;;6.34;75.70;99501.63;5035531;28;20020;-68
2021/12/08 10:01:13;;;;;;;6.22;2.03;;;;;;;7.20;73.53;99477.97;5035490;28;20025;-68
2021/12/08 10:03:39;;;;;;;11.55;2.20;;;;;;;6.85;72.65;99490.97;5053364;28;20044;-68
2021/12/08 10:06:04;;;;;;;8.70;2.00;;;;;;;6.97;73.01;99493.75;5053299;28;20063;-67
2021/12/08 10:08:29;;;;;;;8.80;2.03;;;;;;;6.78;73.59;99498.63;5035330;28;20025;-70
2021/12/08 10:10:55;;;;;;;7.57;2.03;;;;;;;7.65;71.42;99503.88;5053552;28;20353;-69
2021/12/08 10:13:22;;;;;;;8.00;2.13;;;;;;;10.86;59.66;99488.63;5053177;28;20463;-69
2021/12/08 10:15:48;;;;;;;7.95;1.75;;;;;;;7.52;70.48;99491.03;5035349;28;20218;-68
2021/12/08 10:18:14;;;;;;;8.82;2.53;;;;;;;6.50;73.87;99497.94;5035276;28;20380;-68
2021/12/08 10:20:44;;;;;;;7.47;2.28;;;;;;;6.31;75.41;99502.00;5035079;28;20559;-68
2021/12/08 10:23:11;;;;;;;5.32;1.80;;;;;;;6.02;76.28;99501.25;5053082;28;20028;-67
2021/12/08 10:25:43;;;;;;;38.90;18.38;;;;;;;5.97;76.84;99503.59;5035390;28;20029;-67
2021/12/08 10:28:11;;;;;;;11.25;3.13;;;;;;;5.77;78.37;99508.53;5035301;28;20392;-67
2021/12/08 10:30:46;;;;;;;9.60;2.30;;;;;;;5.64;77.78;99522.06;5053638;28;20029;-68
2021/12/08 10:33:47;;;;;;;10.50;2.35;;;;;;;5.63;77.99;99510.22;5035439;28;20017;-69
2021/12/08 10:36:33;;;;;;;6.63;2.63;;;;;;;5.60;78.60;99509.78;5035115;28;20464;-68
2021/12/08 10:38:59;;;;;;;6.97;2.67;;;;;;;5.64;78.56;99508.47;5035343;28;20032;-69
2021/12/08 10:41:24;;;;;;;8.15;2.40;;;;;;;5.56;78.25;99494.00;5036081;28;20027;-70
2021/12/08 10:43:58;;;;;;;9.82;2.67;;;;;;;5.64;77.71;99503.34;5053479;28;20033;-68
2021/12/08 10:46:35;;;;;;;8.60;3.28;;;;;;;5.96;77.35;99498.66;5053120;28;20060;-68
2021/12/08 10:49:20;;;;;;;12.77;4.50;;;;;;;6.11;77.00;99504.47;5035117;28;20033;-68
2021/12/08 10:54:33;;;;;;;9.88;3.85;;;;;;;6.15;77.17;99510.78;5055982;28;20052;-69
2021/12/08 10:57:03;;;;;;;7.82;2.60;;;;;;;6.00;76.27;99528.06;5056635;28;20021;-69
2021/12/08 10:59:56;;;;;;;9.60;2.50;;;;;;;5.95;77.09;99518.34;5056960;28;20384;-69
2021/12/08 11:02:43;;;;;;;8.63;2.70;;;;;;;6.03;76.19;99525.13;5056369;28;20025;-68
2021/12/08 11:05:36;;;;;;;8.63;3.17;;;;;;;6.04;76.31;99527.50;5056372;28;20033;-67
2021/12/08 11:08:04;;;;;;;7.35;3.03;;;;;;;5.95;77.04;99522.69;5056926;28;20021;-68
2021/12/08 11:10:32;;;;;;;5.25;3.00;;;;;;;5.89;76.62;99525.00;5038378;28;20024;-67
2021/12/08 11:12:59;;;;;;;9.30;3.95;;;;;;;6.02;76.85;99514.06;5056217;28;20486;-68
2021/12/08 11:15:27;;;;;;;6.45;3.08;;;;;;;5.94;76.97;99516.00;5056210;28;20047;-67
2021/12/08 11:18:21;;;;;;;5.75;2.67;;;;;;;5.82;77.87;99531.88;5038264;28;20044;-68
2021/12/08 11:21:00;;;;;;;7.18;2.90;;;;;;;5.99;76.74;99526.50;5055861;28;20037;-68
2021/12/08 11:23:42;;;;;;;9.85;3.22;;;;;;;6.00;76.82;99528.84;5056306;28;20028;-68
2021/12/08 11:26:11;;;;;;;9.52;3.15;;;;;;;5.87;77.17;99531.31;5038147;28;20017;-68
2021/12/08 11:28:37;;;;;;;7.50;2.85;;;;;;;6.24;77.75;99537.09;5055850;28;20412;-65
2021/12/08 11:31:12;;;;;;;8.63;3.60;;;;;;;6.09;74.86;99543.09;5055833;28;20025;-65
2021/12/08 11:33:42;;;;;;;14.32;6.07;;;;;;;6.29;75.11;99534.75;5037814;28;20025;-66
2021/12/08 11:39:31;;;;;;;7.45;3.80;;;;;;;6.67;74.81;99534.34;5055983;28;20078;-66
2021/12/08 11:42:06;;;;;;;6.32;3.33;;;;;;;6.62;73.59;99540.06;5055580;28;20360;-67
2021/12/08 11:44:35;;;;;;;8.60;3.70;;;;;;;6.45;74.38;99534.44;5038494;28;20028;-67
2021/12/08 11:47:07;;;;;;;7.13;3.38;;;;;;;6.48;74.78;99531.50;5056378;28;20033;-66
2021/12/08 11:49:34;;;;;;;9.00;3.85;;;;;;;6.38;74.44;99530.25;5055671;28;20082;-68
2021/12/08 11:52:13;;;;;;;7.25;3.30;;;;;;;6.61;73.94;99541.03;5055681;28;20032;-66
2021/12/08 11:54:52;;;;;;;8.13;3.40;;;;;;;6.67;74.01;99542.03;5037436;28;20024;-67
2021/12/08 11:57:22;;;;;;;9.27;3.03;;;;;;;7.39;71.04;99535.50;5055528;28;20454;-67
2021/12/08 12:00:10;;;;;;;6.45;3.00;;;;;;;12.12;55.55;99546.94;5038063;28;20028;-67
2021/12/08 12:02:58;;;;;;;6.35;2.30;;;;;;;13.99;48.84;99539.31;5037654;28;20028;-66
2021/12/08 12:05:28;;;;;;;4.72;2.08;;;;;;;12.23;52.42;99539.38;5036143;28;20021;-68
2021/12/08 12:07:54;;;;;;;4.75;2.00;;;;;;;14.63;47.92;99551.84;5055595;28;20029;-69
2021/12/08 12:10:23;;;;;;;6.65;1.95;;;;;;;12.53;53.42;99550.38;5037682;28;20025;-68
2021/12/08 12:12:48;;;;;;;5.55;1.88;;;;;;;13.21;49.64;99558.34;5055086;28;20029;-68
2021/12/08 12:15:17;;;;;;;7.35;2.10;;;;;;;14.88;47.33;99559.13;5037064;28;20506;-70
2021/12/08 12:17:43;;;;;;;5.55;2.20;;;;;;;8.85;63.20;99571.34;5054775;28;20387;-67
2021/12/08 12:20:29;;;;;;;5.20;2.22;;;;;;;8.66;64.90;99577.34;5054673;28;20067;-67
2021/12/08 12:23:07;;;;;;;5.35;1.90;;;;;;;13.03;51.80;99575.69;5037070;28;20021;-68
2021/12/08 12:29:07;;;;;;;7.18;2.10;;;;;;;9.10;62.17;99584.31;5055027;28;20106;-68
2021/12/08 12:31:54;;;;;;;4.93;1.92;;;;;;;8.49;66.37;99580.38;5054746;28;20025;-67
2021/12/08 12:34:39;;;;;;;6.22;1.98;;;;;;;9.00;61.54;99577.00;5054668;28;20028;-69
2021/12/08 12:37:26;;;;;;;9.48;2.67;;;;;;;7.16;69.30;99576.97;5036769;28;20123;-65
2021/12/08 12:39:57;;;;;;;3.38;2.00;;;;;;;11.61;57.20;99574.25;5036363;28;20033;-68
2021/12/08 12:42:25;;;;;;;8.30;2.28;;;;;;;8.97;61.87;99576.63;5054769;28;20112;-69
2021/12/08 12:44:57;;;;;;;4.60;2.33;;;;;;;9.27;62.96;99584.63;5036522;28;20024;-67